sensor_id;sensor_type;location;lat;lon;timestamp;P1;durP1;ratioP1;P2;durP2;ratioP2
37641;SDS011;23486;51.956;5.888;2023-05-14T00:00:13;11.93;;;7.88;;
37641;SDS011;23486;51.956;5.888;2023-05-14T00:02:39;10.30;;;8.00;;
37641;SDS011;23486;51.956;5.888;2023-05-14T00:05:05;8.63;;;6.82;;
37641;SDS011;23486;51.956;5.888;2023-05-14T00:07:32;11.07;;;9.30;;
37641;SDS011;23486;51.956;5.888;2023-05-14T00:09:57;17.15;;;10.60;;
37641;SDS011;23486;51.956;5.888;2023-05-14T00:12:23;14.20;;;9.25;;
37641;SDS011;23486;51.956;5.888;2023-05-14T00:14:50;13.82;;;8.82;;
37641;SDS011;23486;51.956;5.888;2023-05-14T00:17:16;11.38;;;9.48;;
37641;SDS011;23486;51.956;5.888;2023-05-14T00:19:42;16.08;;;10.02;;
37641;SDS011;23486;51.956;5.888;2023-05-14T00:22:07;11.98;;;8.73;;
37641;SDS011;23486;51.956;5.888;2023-05-14T00:24:33;10.38;;;8.05;;
37641;SDS011;23486;51.956;5.888;2023-05-14T00:26:59;9.48;;;8.38;;
37641;SDS011;23486;51.956;5.888;2023-05-14T00:29:25;10.15;;;9.10;;
37641;SDS011;23486;51.956;5.888;2023-05-14T00:31:51;13.90;;;9.38;;
37641;SDS011;23486;51.956;5.888;2023-05-14T00:34:16;10.10;;;8.32;;
37641;SDS011;23486;51.956;5.888;2023-05-14T00:36:42;13.48;;;10.45;;
37641;SDS011;23486;51.956;5.888;2023-05-14T00:39:08;13.57;;;10.35;;
37641;SDS011;23486;51.956;5.888;2023-05-14T00:41:33;13.23;;;9.43;;
37641;SDS011;23486;51.956;5.888;2023-05-14T00:43:59;13.23;;;9.73;;
37641;SDS011;23486;51.956;5.888;2023-05-14T00:46:24;12.25;;;8.23;;
37641;SDS011;23486;51.956;5.888;2023-05-14T00:48:50;11.43;;;9.27;;
37641;SDS011;23486;51.956;5.888;2023-05-14T00:51:16;15.38;;;9.90;;
37641;SDS011;23486;51.956;5.888;2023-05-14T00:53:43;13.68;;;10.65;;
37641;SDS011;23486;51.956;5.888;2023-05-14T00:56:09;10.95;;;9.70;;
37641;SDS011;23486;51.956;5.888;2023-05-14T00:58:35;11.50;;;8.38;;
37641;SDS011;23486;51.956;5.888;2023-05-14T01:01:01;13.45;;;9.35;;
37641;SDS011;23486;51.956;5.888;2023-05-14T01:03:27;10.63;;;8.82;;
37641;SDS011;23486;51.956;5.888;2023-05-14T01:06:02;11.73;;;8.43;;
37641;SDS011;23486;51.956;5.888;2023-05-14T01:14:29;11.60;;;8.65;;
37641;SDS011;23486;51.956;5.888;2023-05-14T01:17:04;9.73;;;8.60;;
37641;SDS011;23486;51.956;5.888;2023-05-14T01:19:38;12.85;;;9.25;;
37641;SDS011;23486;51.956;5.888;2023-05-14T01:22:06;10.05;;;7.65;;
37641;SDS011;23486;51.956;5.888;2023-05-14T01:24:32;9.07;;;7.43;;
37641;SDS011;23486;51.956;5.888;2023-05-14T01:27:03;12.27;;;8.13;;
37641;SDS011;23486;51.956;5.888;2023-05-14T01:29:56;11.77;;;8.48;;
37641;SDS011;23486;51.956;5.888;2023-05-14T01:32:32;13.88;;;8.82;;
37641;SDS011;23486;51.956;5.888;2023-05-14T01:34:58;13.18;;;8.65;;
37641;SDS011;23486;51.956;5.888;2023-05-14T01:37:25;11.02;;;8.23;;
37641;SDS011;23486;51.956;5.888;2023-05-14T01:39:52;9.45;;;7.60;;
37641;SDS011;23486;51.956;5.888;2023-05-14T01:42:19;10.30;;;8.10;;
37641;SDS011;23486;51.956;5.888;2023-05-14T01:44:45;11.05;;;7.38;;
37641;SDS011;23486;51.956;5.888;2023-05-14T01:47:11;12.13;;;7.60;;
37641;SDS011;23486;51.956;5.888;2023-05-14T01:49:37;10.70;;;7.78;;
37641;SDS011;23486;51.956;5.888;2023-05-14T01:52:02;9.02;;;7.53;;
37641;SDS011;23486;51.956;5.888;2023-05-14T01:54:28;9.05;;;7.07;;
37641;SDS011;23486;51.956;5.888;2023-05-14T01:56:54;12.30;;;8.73;;
37641;SDS011;23486;51.956;5.888;2023-05-14T01:59:20;14.00;;;9.27;;
37641;SDS011;23486;51.956;5.888;2023-05-14T02:01:45;12.90;;;9.30;;
37641;SDS011;23486;51.956;5.888;2023-05-14T02:04:11;11.77;;;9.60;;
37641;SDS011;23486;51.956;5.888;2023-05-14T02:06:36;13.73;;;9.88;;
37641;SDS011;23486;51.956;5.888;2023-05-14T02:09:02;12.05;;;9.15;;
37641;SDS011;23486;51.956;5.888;2023-05-14T02:11:29;10.95;;;9.40;;
37641;SDS011;23486;51.956;5.888;2023-05-14T02:13:54;14.98;;;9.43;;
37641;SDS011;23486;51.956;5.888;2023-05-14T02:16:20;12.70;;;9.18;;
37641;SDS011;23486;51.956;5.888;2023-05-14T02:18:45;17.83;;;10.43;;
37641;SDS011;23486;51.956;5.888;2023-05-14T02:21:11;12.15;;;10.13;;
37641;SDS011;23486;51.956;5.888;2023-05-14T02:23:36;11.98;;;8.85;;
37641;SDS011;23486;51.956;5.888;2023-05-14T02:26:02;12.75;;;9.50;;
37641;SDS011;23486;51.956;5.888;2023-05-14T02:28:27;15.35;;;10.07;;
37641;SDS011;23486;51.956;5.888;2023-05-14T02:30:57;11.40;;;9.25;;
37641;SDS011;23486;51.956;5.888;2023-05-14T02:33:24;11.25;;;8.43;;
37641;SDS011;23486;51.956;5.888;2023-05-14T02:35:49;9.70;;;8.70;;
37641;SDS011;23486;51.956;5.888;2023-05-14T02:38:15;10.57;;;8.45;;
37641;SDS011;23486;51.956;5.888;2023-05-14T02:40:40;12.50;;;10.02;;
37641;SDS011;23486;51.956;5.888;2023-05-14T02:43:06;13.95;;;9.20;;
37641;SDS011;23486;51.956;5.888;2023-05-14T02:45:32;13.25;;;9.05;;
37641;SDS011;23486;51.956;5.888;2023-05-14T02:47:57;13.32;;;10.80;;
37641;SDS011;23486;51.956;5.888;2023-05-14T02:50:23;12.43;;;10.27;;
37641;SDS011;23486;51.956;5.888;2023-05-14T02:52:48;13.93;;;9.00;;
37641;SDS011;23486;51.956;5.888;2023-05-14T02:55:14;13.43;;;9.32;;
37641;SDS011;23486;51.956;5.888;2023-05-14T02:57:39;12.85;;;8.65;;
37641;SDS011;23486;51.956;5.888;2023-05-14T03:00:05;13.38;;;8.98;;
37641;SDS011;23486;51.956;5.888;2023-05-14T03:02:31;12.60;;;9.35;;
37641;SDS011;23486;51.956;5.888;2023-05-14T03:04:57;15.52;;;10.30;;
37641;SDS011;23486;51.956;5.888;2023-05-14T03:07:22;11.32;;;9.60;;
37641;SDS011;23486;51.956;5.888;2023-05-14T03:09:48;14.32;;;9.18;;
37641;SDS011;23486;51.956;5.888;2023-05-14T03:12:13;13.30;;;9.07;;
37641;SDS011;23486;51.956;5.888;2023-05-14T03:14:39;12.55;;;9.52;;
37641;SDS011;23486;51.956;5.888;2023-05-14T03:17:04;13.57;;;10.43;;
37641;SDS011;23486;51.956;5.888;2023-05-14T03:19:30;14.73;;;10.07;;
37641;SDS011;23486;51.956;5.888;2023-05-14T03:21:55;14.13;;;9.25;;
37641;SDS011;23486;51.956;5.888;2023-05-14T03:24:21;12.48;;;9.95;;
37641;SDS011;23486;51.956;5.888;2023-05-14T03:26:47;13.88;;;10.10;;
37641;SDS011;23486;51.956;5.888;2023-05-14T03:29:12;14.70;;;9.57;;
37641;SDS011;23486;51.956;5.888;2023-05-14T03:31:41;12.93;;;9.20;;
37641;SDS011;23486;51.956;5.888;2023-05-14T03:34:07;13.18;;;9.13;;
37641;SDS011;23486;51.956;5.888;2023-05-14T03:36:33;13.32;;;9.25;;
37641;SDS011;23486;51.956;5.888;2023-05-14T03:39:00;12.57;;;9.77;;
37641;SDS011;23486;51.956;5.888;2023-05-14T03:41:26;14.32;;;10.45;;
37641;SDS011;23486;51.956;5.888;2023-05-14T03:43:51;16.83;;;11.10;;
37641;SDS011;23486;51.956;5.888;2023-05-14T03:46:17;21.83;;;11.57;;
37641;SDS011;23486;51.956;5.888;2023-05-14T03:48:42;12.20;;;10.05;;
37641;SDS011;23486;51.956;5.888;2023-05-14T03:51:08;12.20;;;10.45;;
37641;SDS011;23486;51.956;5.888;2023-05-14T03:53:34;14.32;;;10.43;;
37641;SDS011;23486;51.956;5.888;2023-05-14T03:55:59;13.85;;;10.00;;
37641;SDS011;23486;51.956;5.888;2023-05-14T03:58:25;15.15;;;10.90;;
37641;SDS011;23486;51.956;5.888;2023-05-14T04:00:50;14.57;;;11.90;;
37641;SDS011;23486;51.956;5.888;2023-05-14T04:03:16;14.95;;;10.98;;
37641;SDS011;23486;51.956;5.888;2023-05-14T04:05:41;17.00;;;11.60;;
37641;SDS011;23486;51.956;5.888;2023-05-14T04:08:07;13.50;;;10.55;;
37641;SDS011;23486;51.956;5.888;2023-05-14T04:10:32;14.60;;;11.15;;
37641;SDS011;23486;51.956;5.888;2023-05-14T04:12:58;16.55;;;11.55;;
37641;SDS011;23486;51.956;5.888;2023-05-14T04:15:24;14.45;;;11.20;;
37641;SDS011;23486;51.956;5.888;2023-05-14T04:17:49;15.77;;;11.68;;
37641;SDS011;23486;51.956;5.888;2023-05-14T04:20:15;15.68;;;11.23;;
37641;SDS011;23486;51.956;5.888;2023-05-14T04:22:40;20.85;;;11.75;;
37641;SDS011;23486;51.956;5.888;2023-05-14T04:25:06;18.67;;;12.32;;
37641;SDS011;23486;51.956;5.888;2023-05-14T04:27:32;15.70;;;12.43;;
37641;SDS011;23486;51.956;5.888;2023-05-14T04:29:58;16.45;;;11.32;;
37641;SDS011;23486;51.956;5.888;2023-05-14T04:32:24;19.38;;;13.35;;
37641;SDS011;23486;51.956;5.888;2023-05-14T04:34:49;22.35;;;14.63;;
37641;SDS011;23486;51.956;5.888;2023-05-14T04:37:15;22.30;;;13.50;;
37641;SDS011;23486;51.956;5.888;2023-05-14T04:39:41;24.70;;;17.73;;
37641;SDS011;23486;51.956;5.888;2023-05-14T04:42:07;27.00;;;18.27;;
37641;SDS011;23486;51.956;5.888;2023-05-14T04:44:33;24.95;;;18.02;;
37641;SDS011;23486;51.956;5.888;2023-05-14T04:47:00;25.70;;;17.42;;
37641;SDS011;23486;51.956;5.888;2023-05-14T04:49:26;23.83;;;17.33;;
37641;SDS011;23486;51.956;5.888;2023-05-14T04:51:52;28.83;;;18.08;;
37641;SDS011;23486;51.956;5.888;2023-05-14T04:54:18;24.27;;;16.25;;
37641;SDS011;23486;51.956;5.888;2023-05-14T04:56:44;23.88;;;15.93;;
37641;SDS011;23486;51.956;5.888;2023-05-14T04:59:09;21.40;;;14.75;;
37641;SDS011;23486;51.956;5.888;2023-05-14T05:01:35;17.45;;;13.55;;
37641;SDS011;23486;51.956;5.888;2023-05-14T05:04:00;21.23;;;14.10;;
37641;SDS011;23486;51.956;5.888;2023-05-14T05:06:26;17.65;;;13.77;;
37641;SDS011;23486;51.956;5.888;2023-05-14T05:08:52;18.92;;;13.95;;
37641;SDS011;23486;51.956;5.888;2023-05-14T05:11:17;19.17;;;13.60;;
37641;SDS011;23486;51.956;5.888;2023-05-14T05:13:43;15.82;;;12.45;;
37641;SDS011;23486;51.956;5.888;2023-05-14T05:16:08;22.60;;;14.45;;
37641;SDS011;23486;51.956;5.888;2023-05-14T05:18:34;22.98;;;15.55;;
37641;SDS011;23486;51.956;5.888;2023-05-14T05:21:00;18.10;;;13.77;;
37641;SDS011;23486;51.956;5.888;2023-05-14T05:23:25;18.13;;;13.70;;
37641;SDS011;23486;51.956;5.888;2023-05-14T05:25:51;17.15;;;14.02;;
37641;SDS011;23486;51.956;5.888;2023-05-14T05:28:16;16.92;;;13.52;;
37641;SDS011;23486;51.956;5.888;2023-05-14T05:30:42;18.27;;;12.70;;
37641;SDS011;23486;51.956;5.888;2023-05-14T05:33:09;16.23;;;12.77;;
37641;SDS011;23486;51.956;5.888;2023-05-14T05:35:35;20.80;;;14.68;;
37641;SDS011;23486;51.956;5.888;2023-05-14T05:38:01;18.42;;;13.95;;
37641;SDS011;23486;51.956;5.888;2023-05-14T05:40:27;18.10;;;13.63;;
37641;SDS011;23486;51.956;5.888;2023-05-14T05:42:52;17.85;;;12.25;;
37641;SDS011;23486;51.956;5.888;2023-05-14T05:45:18;17.92;;;12.00;;
37641;SDS011;23486;51.956;5.888;2023-05-14T05:47:44;16.02;;;12.45;;
37641;SDS011;23486;51.956;5.888;2023-05-14T05:50:09;16.02;;;12.32;;
37641;SDS011;23486;51.956;5.888;2023-05-14T05:52:35;19.13;;;12.85;;
37641;SDS011;23486;51.956;5.888;2023-05-14T05:55:01;17.25;;;13.40;;
37641;SDS011;23486;51.956;5.888;2023-05-14T05:57:26;22.48;;;14.57;;
37641;SDS011;23486;51.956;5.888;2023-05-14T05:59:52;22.35;;;14.15;;
37641;SDS011;23486;51.956;5.888;2023-05-14T06:02:18;19.75;;;15.57;;
37641;SDS011;23486;51.956;5.888;2023-05-14T06:04:44;22.25;;;14.45;;
37641;SDS011;23486;51.956;5.888;2023-05-14T06:07:09;25.05;;;15.27;;
37641;SDS011;23486;51.956;5.888;2023-05-14T06:09:35;19.92;;;13.82;;
37641;SDS011;23486;51.956;5.888;2023-05-14T06:12:00;19.98;;;13.63;;
37641;SDS011;23486;51.956;5.888;2023-05-14T06:14:26;22.95;;;15.05;;
37641;SDS011;23486;51.956;5.888;2023-05-14T06:16:52;20.73;;;16.35;;
37641;SDS011;23486;51.956;5.888;2023-05-14T06:19:17;19.23;;;13.82;;
37641;SDS011;23486;51.956;5.888;2023-05-14T06:21:46;17.98;;;14.75;;
37641;SDS011;23486;51.956;5.888;2023-05-14T06:24:11;21.33;;;14.30;;
37641;SDS011;23486;51.956;5.888;2023-05-14T06:26:37;17.95;;;12.88;;
37641;SDS011;23486;51.956;5.888;2023-05-14T06:29:03;22.27;;;14.85;;
37641;SDS011;23486;51.956;5.888;2023-05-14T06:31:28;16.70;;;12.88;;
37641;SDS011;23486;51.956;5.888;2023-05-14T06:33:54;15.70;;;11.98;;
37641;SDS011;23486;51.956;5.888;2023-05-14T06:36:19;12.75;;;10.27;;
37641;SDS011;23486;51.956;5.888;2023-05-14T06:38:45;20.58;;;12.43;;
37641;SDS011;23486;51.956;5.888;2023-05-14T06:41:10;17.27;;;12.90;;
37641;SDS011;23486;51.956;5.888;2023-05-14T06:43:36;15.50;;;12.40;;
37641;SDS011;23486;51.956;5.888;2023-05-14T06:46:01;17.75;;;11.95;;
37641;SDS011;23486;51.956;5.888;2023-05-14T06:48:27;18.95;;;13.43;;
37641;SDS011;23486;51.956;5.888;2023-05-14T06:50:53;16.00;;;11.82;;
37641;SDS011;23486;51.956;5.888;2023-05-14T06:53:19;16.13;;;11.10;;
37641;SDS011;23486;51.956;5.888;2023-05-14T06:55:48;17.23;;;11.13;;
37641;SDS011;23486;51.956;5.888;2023-05-14T06:58:13;12.50;;;10.18;;
37641;SDS011;23486;51.956;5.888;2023-05-14T07:00:39;16.65;;;11.38;;
37641;SDS011;23486;51.956;5.888;2023-05-14T07:03:05;15.55;;;11.15;;
37641;SDS011;23486;51.956;5.888;2023-05-14T07:05:30;15.10;;;11.25;;
37641;SDS011;23486;51.956;5.888;2023-05-14T07:07:56;14.20;;;10.82;;
37641;SDS011;23486;51.956;5.888;2023-05-14T07:10:22;13.07;;;10.63;;
37641;SDS011;23486;51.956;5.888;2023-05-14T07:12:48;14.40;;;10.57;;
37641;SDS011;23486;51.956;5.888;2023-05-14T07:15:14;15.20;;;11.43;;
37641;SDS011;23486;51.956;5.888;2023-05-14T07:17:40;16.88;;;11.60;;
37641;SDS011;23486;51.956;5.888;2023-05-14T07:20:06;13.20;;;10.07;;
37641;SDS011;23486;51.956;5.888;2023-05-14T07:22:32;16.88;;;10.77;;
37641;SDS011;23486;51.956;5.888;2023-05-14T07:24:57;15.27;;;10.77;;
37641;SDS011;23486;51.956;5.888;2023-05-14T07:27:23;16.65;;;11.20;;
37641;SDS011;23486;51.956;5.888;2023-05-14T07:29:49;13.82;;;11.23;;
37641;SDS011;23486;51.956;5.888;2023-05-14T07:32:14;14.63;;;9.63;;
37641;SDS011;23486;51.956;5.888;2023-05-14T07:34:40;15.82;;;9.77;;
37641;SDS011;23486;51.956;5.888;2023-05-14T07:37:06;14.57;;;9.73;;
37641;SDS011;23486;51.956;5.888;2023-05-14T07:39:31;14.60;;;11.23;;
37641;SDS011;23486;51.956;5.888;2023-05-14T07:41:57;18.15;;;10.13;;
37641;SDS011;23486;51.956;5.888;2023-05-14T07:44:24;13.25;;;8.73;;
37641;SDS011;23486;51.956;5.888;2023-05-14T07:46:50;11.50;;;8.88;;
37641;SDS011;23486;51.956;5.888;2023-05-14T07:49:15;13.52;;;8.80;;
37641;SDS011;23486;51.956;5.888;2023-05-14T07:51:41;13.27;;;8.27;;
37641;SDS011;23486;51.956;5.888;2023-05-14T07:54:06;15.15;;;10.38;;
37641;SDS011;23486;51.956;5.888;2023-05-14T07:56:32;14.90;;;9.93;;
37641;SDS011;23486;51.956;5.888;2023-05-14T07:58:58;12.25;;;8.32;;
37641;SDS011;23486;51.956;5.888;2023-05-14T08:01:23;8.63;;;7.03;;
37641;SDS011;23486;51.956;5.888;2023-05-14T08:03:49;10.98;;;8.32;;
37641;SDS011;23486;51.956;5.888;2023-05-14T08:06:14;11.60;;;7.55;;
37641;SDS011;23486;51.956;5.888;2023-05-14T08:08:40;11.00;;;6.93;;
37641;SDS011;23486;51.956;5.888;2023-05-14T08:11:06;9.55;;;7.20;;
37641;SDS011;23486;51.956;5.888;2023-05-14T08:13:31;11.38;;;7.60;;
37641;SDS011;23486;51.956;5.888;2023-05-14T08:15:57;11.45;;;7.72;;
37641;SDS011;23486;51.956;5.888;2023-05-14T08:18:23;11.18;;;6.57;;
37641;SDS011;23486;51.956;5.888;2023-05-14T08:20:48;8.60;;;5.63;;
37641;SDS011;23486;51.956;5.888;2023-05-14T08:23:14;6.88;;;5.40;;
37641;SDS011;23486;51.956;5.888;2023-05-14T08:25:40;7.85;;;5.47;;
37641;SDS011;23486;51.956;5.888;2023-05-14T08:28:06;6.60;;;4.53;;
37641;SDS011;23486;51.956;5.888;2023-05-14T08:30:31;7.30;;;4.30;;
37641;SDS011;23486;51.956;5.888;2023-05-14T08:32:57;9.20;;;4.78;;
37641;SDS011;23486;51.956;5.888;2023-05-14T08:35:23;5.72;;;4.50;;
37641;SDS011;23486;51.956;5.888;2023-05-14T08:37:48;8.07;;;6.00;;
37641;SDS011;23486;51.956;5.888;2023-05-14T08:40:15;7.07;;;4.82;;
37641;SDS011;23486;51.956;5.888;2023-05-14T08:42:41;6.85;;;4.05;;
37641;SDS011;23486;51.956;5.888;2023-05-14T08:45:19;7.15;;;4.25;;
37641;SDS011;23486;51.956;5.888;2023-05-14T08:47:49;9.85;;;4.70;;
37641;SDS011;23486;51.956;5.888;2023-05-14T08:50:15;8.52;;;4.45;;
37641;SDS011;23486;51.956;5.888;2023-05-14T08:52:42;6.97;;;4.18;;
37641;SDS011;23486;51.956;5.888;2023-05-14T08:55:08;5.63;;;3.33;;
37641;SDS011;23486;51.956;5.888;2023-05-14T08:57:36;5.90;;;2.95;;
37641;SDS011;23486;51.956;5.888;2023-05-14T09:00:02;6.47;;;3.78;;
37641;SDS011;23486;51.956;5.888;2023-05-14T09:02:39;8.45;;;3.90;;
37641;SDS011;23486;51.956;5.888;2023-05-14T09:05:05;6.97;;;3.78;;
37641;SDS011;23486;51.956;5.888;2023-05-14T09:07:33;5.95;;;2.92;;
37641;SDS011;23486;51.956;5.888;2023-05-14T09:09:59;6.38;;;3.22;;
37641;SDS011;23486;51.956;5.888;2023-05-14T09:12:25;4.80;;;3.38;;
37641;SDS011;23486;51.956;5.888;2023-05-14T09:14:51;3.97;;;2.90;;
37641;SDS011;23486;51.956;5.888;2023-05-14T09:17:17;6.70;;;2.78;;
37641;SDS011;23486;51.956;5.888;2023-05-14T09:19:44;7.15;;;3.80;;
37641;SDS011;23486;51.956;5.888;2023-05-14T09:22:14;5.88;;;3.65;;
37641;SDS011;23486;51.956;5.888;2023-05-14T09:24:41;5.95;;;3.90;;
37641;SDS011;23486;51.956;5.888;2023-05-14T09:27:08;3.88;;;2.58;;
37641;SDS011;23486;51.956;5.888;2023-05-14T09:29:39;3.33;;;2.22;;
37641;SDS011;23486;51.956;5.888;2023-05-14T09:32:05;4.00;;;2.22;;
37641;SDS011;23486;51.956;5.888;2023-05-14T09:34:32;5.78;;;2.05;;
37641;SDS011;23486;51.956;5.888;2023-05-14T09:37:02;3.35;;;2.00;;
37641;SDS011;23486;51.956;5.888;2023-05-14T09:39:29;4.03;;;2.15;;
37641;SDS011;23486;51.956;5.888;2023-05-14T09:41:56;4.93;;;2.38;;
37641;SDS011;23486;51.956;5.888;2023-05-14T09:44:22;4.35;;;2.00;;
37641;SDS011;23486;51.956;5.888;2023-05-14T09:46:48;5.25;;;2.03;;
37641;SDS011;23486;51.956;5.888;2023-05-14T09:49:15;4.43;;;2.60;;
37641;SDS011;23486;51.956;5.888;2023-05-14T09:51:40;4.47;;;2.28;;
37641;SDS011;23486;51.956;5.888;2023-05-14T09:54:06;6.03;;;2.03;;
37641;SDS011;23486;51.956;5.888;2023-05-14T09:56:33;3.53;;;1.60;;
37641;SDS011;23486;51.956;5.888;2023-05-14T09:59:00;3.63;;;1.55;;
37641;SDS011;23486;51.956;5.888;2023-05-14T10:01:27;3.03;;;1.63;;
37641;SDS011;23486;51.956;5.888;2023-05-14T10:03:53;5.03;;;1.75;;
37641;SDS011;23486;51.956;5.888;2023-05-14T10:06:22;5.07;;;2.47;;
37641;SDS011;23486;51.956;5.888;2023-05-14T10:08:52;4.13;;;2.05;;
37641;SDS011;23486;51.956;5.888;2023-05-14T10:11:22;3.53;;;1.98;;
37641;SDS011;23486;51.956;5.888;2023-05-14T10:14:06;3.40;;;2.05;;
37641;SDS011;23486;51.956;5.888;2023-05-14T10:16:42;2.85;;;1.63;;
37641;SDS011;23486;51.956;5.888;2023-05-14T10:19:14;3.70;;;1.87;;
37641;SDS011;23486;51.956;5.888;2023-05-14T10:21:43;4.55;;;2.30;;
37641;SDS011;23486;51.956;5.888;2023-05-14T10:24:12;3.55;;;1.92;;
37641;SDS011;23486;51.956;5.888;2023-05-14T10:26:38;4.47;;;1.63;;
37641;SDS011;23486;51.956;5.888;2023-05-14T10:29:06;3.15;;;1.58;;
37641;SDS011;23486;51.956;5.888;2023-05-14T10:37:02;5.22;;;1.63;;
37641;SDS011;23486;51.956;5.888;2023-05-14T10:39:52;3.33;;;1.50;;
37641;SDS011;23486;51.956;5.888;2023-05-14T10:42:24;3.20;;;1.40;;
37641;SDS011;23486;51.956;5.888;2023-05-14T10:45:04;3.50;;;1.45;;
37641;SDS011;23486;51.956;5.888;2023-05-14T10:47:33;5.20;;;1.60;;
37641;SDS011;23486;51.956;5.888;2023-05-14T10:50:07;4.55;;;1.50;;
37641;SDS011;23486;51.956;5.888;2023-05-14T10:52:34;5.05;;;1.63;;
37641;SDS011;23486;51.956;5.888;2023-05-14T10:55:01;4.10;;;1.25;;
37641;SDS011;23486;51.956;5.888;2023-05-14T10:57:31;3.88;;;1.20;;
37641;SDS011;23486;51.956;5.888;2023-05-14T10:59:59;4.25;;;1.63;;
37641;SDS011;23486;51.956;5.888;2023-05-14T11:02:26;2.88;;;1.48;;
37641;SDS011;23486;51.956;5.888;2023-05-14T11:05:03;5.10;;;1.90;;
37641;SDS011;23486;51.956;5.888;2023-05-14T11:07:41;3.55;;;1.55;;
37641;SDS011;23486;51.956;5.888;2023-05-14T11:10:18;4.13;;;1.63;;
37641;SDS011;23486;51.956;5.888;2023-05-14T11:15:12;5.88;;;1.90;;
37641;SDS011;23486;51.956;5.888;2023-05-14T11:17:41;3.20;;;1.70;;
37641;SDS011;23486;51.956;5.888;2023-05-14T11:20:08;3.38;;;1.48;;
37641;SDS011;23486;51.956;5.888;2023-05-14T11:22:35;3.15;;;2.20;;
37641;SDS011;23486;51.956;5.888;2023-05-14T11:25:01;3.53;;;2.05;;
37641;SDS011;23486;51.956;5.888;2023-05-14T11:27:28;4.30;;;2.80;;
37641;SDS011;23486;51.956;5.888;2023-05-14T11:29:54;7.30;;;3.05;;
37641;SDS011;23486;51.956;5.888;2023-05-14T11:32:20;5.03;;;3.17;;
37641;SDS011;23486;51.956;5.888;2023-05-14T11:34:45;5.63;;;3.38;;
37641;SDS011;23486;51.956;5.888;2023-05-14T11:37:12;5.45;;;2.58;;
37641;SDS011;23486;51.956;5.888;2023-05-14T11:39:45;6.70;;;3.42;;
37641;SDS011;23486;51.956;5.888;2023-05-14T11:42:15;5.32;;;2.85;;
37641;SDS011;23486;51.956;5.888;2023-05-14T11:44:42;8.40;;;3.10;;
37641;SDS011;23486;51.956;5.888;2023-05-14T11:47:10;4.93;;;2.38;;
37641;SDS011;23486;51.956;5.888;2023-05-14T11:49:36;6.75;;;3.40;;
37641;SDS011;23486;51.956;5.888;2023-05-14T11:52:03;5.65;;;2.10;;
37641;SDS011;23486;51.956;5.888;2023-05-14T11:54:30;3.72;;;1.92;;
37641;SDS011;23486;51.956;5.888;2023-05-14T11:56:58;4.75;;;1.90;;
37641;SDS011;23486;51.956;5.888;2023-05-14T11:59:27;3.90;;;1.52;;
37641;SDS011;23486;51.956;5.888;2023-05-14T12:01:56;3.42;;;1.63;;
37641;SDS011;23486;51.956;5.888;2023-05-14T12:04:25;2.13;;;1.02;;
37641;SDS011;23486;51.956;5.888;2023-05-14T12:06:52;3.42;;;1.30;;
37641;SDS011;23486;51.956;5.888;2023-05-14T12:09:19;2.97;;;1.60;;
37641;SDS011;23486;51.956;5.888;2023-05-14T12:11:45;4.00;;;1.73;;
37641;SDS011;23486;51.956;5.888;2023-05-14T12:14:15;3.47;;;1.08;;
37641;SDS011;23486;51.956;5.888;2023-05-14T12:16:42;4.85;;;1.33;;
37641;SDS011;23486;51.956;5.888;2023-05-14T12:19:09;4.85;;;1.75;;
37641;SDS011;23486;51.956;5.888;2023-05-14T12:21:35;2.60;;;1.20;;
37641;SDS011;23486;51.956;5.888;2023-05-14T12:24:02;5.07;;;1.10;;
37641;SDS011;23486;51.956;5.888;2023-05-14T12:26:30;4.07;;;1.10;;
37641;SDS011;23486;51.956;5.888;2023-05-14T12:29:00;3.72;;;1.20;;
37641;SDS011;23486;51.956;5.888;2023-05-14T12:31:30;3.58;;;1.40;;
37641;SDS011;23486;51.956;5.888;2023-05-14T12:33:57;2.00;;;1.30;;
37641;SDS011;23486;51.956;5.888;2023-05-14T12:36:23;2.58;;;1.13;;
37641;SDS011;23486;51.956;5.888;2023-05-14T12:38:49;4.82;;;1.88;;
37641;SDS011;23486;51.956;5.888;2023-05-14T12:41:15;3.70;;;1.60;;
37641;SDS011;23486;51.956;5.888;2023-05-14T12:43:42;5.75;;;1.80;;
37641;SDS011;23486;51.956;5.888;2023-05-14T12:46:08;6.35;;;2.53;;
37641;SDS011;23486;51.956;5.888;2023-05-14T12:48:33;8.05;;;2.85;;
37641;SDS011;23486;51.956;5.888;2023-05-14T12:50:59;4.80;;;2.15;;
37641;SDS011;23486;51.956;5.888;2023-05-14T12:53:24;4.45;;;2.70;;
37641;SDS011;23486;51.956;5.888;2023-05-14T12:55:50;6.90;;;2.80;;
37641;SDS011;23486;51.956;5.888;2023-05-14T12:58:16;6.18;;;2.17;;
37641;SDS011;23486;51.956;5.888;2023-05-14T13:00:41;6.03;;;2.95;;
37641;SDS011;23486;51.956;5.888;2023-05-14T13:03:07;6.15;;;3.60;;
37641;SDS011;23486;51.956;5.888;2023-05-14T13:05:32;4.57;;;2.35;;
37641;SDS011;23486;51.956;5.888;2023-05-14T13:07:58;6.78;;;3.17;;
37641;SDS011;23486;51.956;5.888;2023-05-14T13:10:26;7.25;;;3.25;;
37641;SDS011;23486;51.956;5.888;2023-05-14T13:12:51;5.85;;;3.15;;
37641;SDS011;23486;51.956;5.888;2023-05-14T13:15:17;5.38;;;3.35;;
37641;SDS011;23486;51.956;5.888;2023-05-14T13:17:42;4.63;;;2.38;;
37641;SDS011;23486;51.956;5.888;2023-05-14T13:20:08;5.82;;;2.00;;
37641;SDS011;23486;51.956;5.888;2023-05-14T13:22:34;3.38;;;1.50;;
37641;SDS011;23486;51.956;5.888;2023-05-14T13:25:00;4.88;;;1.83;;
37641;SDS011;23486;51.956;5.888;2023-05-14T13:27:25;3.40;;;1.52;;
37641;SDS011;23486;51.956;5.888;2023-05-14T13:29:51;4.38;;;1.30;;
37641;SDS011;23486;51.956;5.888;2023-05-14T13:32:16;2.72;;;0.90;;
37641;SDS011;23486;51.956;5.888;2023-05-14T13:34:42;5.82;;;2.15;;
37641;SDS011;23486;51.956;5.888;2023-05-14T13:37:08;4.20;;;1.42;;
37641;SDS011;23486;51.956;5.888;2023-05-14T13:39:33;4.03;;;1.25;;
37641;SDS011;23486;51.956;5.888;2023-05-14T13:41:59;4.32;;;1.48;;
37641;SDS011;23486;51.956;5.888;2023-05-14T13:44:25;2.78;;;0.98;;
37641;SDS011;23486;51.956;5.888;2023-05-14T13:46:51;4.15;;;1.30;;
37641;SDS011;23486;51.956;5.888;2023-05-14T13:49:17;3.83;;;1.60;;
37641;SDS011;23486;51.956;5.888;2023-05-14T13:51:43;3.60;;;1.38;;
37641;SDS011;23486;51.956;5.888;2023-05-14T13:54:08;5.57;;;1.17;;
37641;SDS011;23486;51.956;5.888;2023-05-14T13:56:34;3.70;;;1.30;;
37641;SDS011;23486;51.956;5.888;2023-05-14T13:59:00;3.30;;;1.15;;
37641;SDS011;23486;51.956;5.888;2023-05-14T14:01:25;6.25;;;1.90;;
37641;SDS011;23486;51.956;5.888;2023-05-14T14:03:51;3.17;;;0.90;;
37641;SDS011;23486;51.956;5.888;2023-05-14T14:06:16;3.67;;;1.20;;
37641;SDS011;23486;51.956;5.888;2023-05-14T14:08:42;3.97;;;1.60;;
37641;SDS011;23486;51.956;5.888;2023-05-14T14:11:07;4.10;;;1.52;;
37641;SDS011;23486;51.956;5.888;2023-05-14T14:13:33;3.65;;;1.55;;
37641;SDS011;23486;51.956;5.888;2023-05-14T14:15:59;3.10;;;1.35;;
37641;SDS011;23486;51.956;5.888;2023-05-14T14:18:26;4.30;;;1.55;;
37641;SDS011;23486;51.956;5.888;2023-05-14T14:20:52;2.95;;;1.38;;
37641;SDS011;23486;51.956;5.888;2023-05-14T14:23:18;2.25;;;0.93;;
37641;SDS011;23486;51.956;5.888;2023-05-14T14:25:43;3.95;;;1.27;;
37641;SDS011;23486;51.956;5.888;2023-05-14T14:28:09;3.50;;;1.73;;
37641;SDS011;23486;51.956;5.888;2023-05-14T14:30:34;6.80;;;2.08;;
37641;SDS011;23486;51.956;5.888;2023-05-14T14:33:00;2.70;;;1.10;;
37641;SDS011;23486;51.956;5.888;2023-05-14T14:35:25;3.28;;;1.60;;
37641;SDS011;23486;51.956;5.888;2023-05-14T14:37:51;3.97;;;1.90;;
37641;SDS011;23486;51.956;5.888;2023-05-14T14:40:17;3.80;;;1.40;;
37641;SDS011;23486;51.956;5.888;2023-05-14T14:42:43;3.70;;;1.38;;
37641;SDS011;23486;51.956;5.888;2023-05-14T14:45:09;6.30;;;1.67;;